createdAt,value
2023-03-29T04:06:44.128Z,4.68
2023-03-29T04:09:50.445Z,5.57
2023-03-29T04:12:53.623Z,4.30
2023-03-29T04:16:01.356Z,5.47
2023-03-29T04:19:03.896Z,5.37
2023-03-29T04:22:06.311Z,5.28
2023-03-29T04:25:10.401Z,5.55
2023-03-29T04:28:14.519Z,5.53
2023-03-29T04:31:17.001Z,5.45
2023-03-29T04:34:20.089Z,5.22
2023-03-29T04:37:22.968Z,5.95
2023-03-29T04:40:25.807Z,7.50
2023-03-29T04:43:30.082Z,8.30
2023-03-29T04:46:34.617Z,8.73
2023-03-29T04:49:39.592Z,8.55
2023-03-29T04:52:45.319Z,8.10
2023-03-29T04:55:47.893Z,8.40
2023-03-29T04:58:52.726Z,6.85
2023-03-29T05:01:56.664Z,7.15
2023-03-29T05:04:59.306Z,6.45
2023-03-29T05:08:01.926Z,6.60
2023-03-29T05:11:10.772Z,6.57
2023-03-29T05:14:15.136Z,7.28
2023-03-29T05:17:19.279Z,7.37
2023-03-29T05:20:22.116Z,10.20
2023-03-29T05:23:25.786Z,9.95
2023-03-29T05:26:29.639Z,9.10
2023-03-29T05:29:32.843Z,8.70
2023-03-29T05:32:38.680Z,8.27
2023-03-29T05:35:41.613Z,8.70
2023-03-29T05:38:46.991Z,9.55
2023-03-29T05:41:49.955Z,9.43
2023-03-29T05:44:54.650Z,10.27
2023-03-29T05:47:57.684Z,7.57
2023-03-29T05:51:00.902Z,7.57
2023-03-29T05:54:04.096Z,5.87
2023-03-29T05:57:06.326Z,5.57
2023-03-29T06:00:21.864Z,4.40
2023-03-29T06:03:33.980Z,4.47
2023-03-29T06:06:36.514Z,4.35
2023-03-29T06:09:39.733Z,3.60
2023-03-29T06:12:42.579Z,3.87
2023-03-29T06:15:45.193Z,3.60
2023-03-29T06:18:47.976Z,4.50
2023-03-29T06:21:53.115Z,4.20
2023-03-29T06:24:55.731Z,5.55
2023-03-29T06:27:58.582Z,6.00
2023-03-29T06:31:02.537Z,5.47
2023-03-29T06:37:12.865Z,5.47
2023-03-29T06:40:21.642Z,5.12
2023-03-29T06:43:24.060Z,4.78
2023-03-29T06:46:27.610Z,4.93
2023-03-29T06:49:30.274Z,5.70
2023-03-29T06:52:34.052Z,5.75
2023-03-29T06:55:36.381Z,5.93
2023-03-29T06:58:42.851Z,5.93
2023-03-29T07:01:47.526Z,5.68
2023-03-29T07:04:50.470Z,5.05
2023-03-29T07:08:00.267Z,4.87
2023-03-29T07:11:04.888Z,4.28
2023-03-29T07:14:10.809Z,4.22
2023-03-29T07:17:13.659Z,4.40
2023-03-29T07:20:16.661Z,4.37
2023-03-29T07:23:19.559Z,4.55
2023-03-29T07:26:28.436Z,4.32
2023-03-29T07:29:32.624Z,4.40
2023-03-29T07:32:36.361Z,4.62
2023-03-29T07:35:43.567Z,4.60
2023-03-29T07:38:45.824Z,4.18
2023-03-29T07:41:49.186Z,5.10
2023-03-29T07:44:52.100Z,4.22
2023-03-29T07:47:57.293Z,4.32
2023-03-29T07:51:00.374Z,4.00
2023-03-29T07:54:03.601Z,4.18
2023-03-29T07:57:06.747Z,4.32
2023-03-29T08:00:14.859Z,3.72
2023-03-29T08:03:18.032Z,3.75
2023-03-29T08:10:12.083Z,3.65
2023-03-29T08:13:16.453Z,3.17
2023-03-29T08:16:19.681Z,3.72
2023-03-29T08:19:23.031Z,3.83
2023-03-29T08:22:26.050Z,3.20
2023-03-29T08:25:31.498Z,3.28
2023-03-29T08:28:34.704Z,3.10
2023-03-29T08:31:39.643Z,2.50
2023-03-29T08:34:42.220Z,2.50
2023-03-29T08:37:47.187Z,2.20
2023-03-29T08:40:51.106Z,2.25
2023-03-29T08:44:12.041Z,3.05
2023-03-29T08:47:20.288Z,2.28
2023-03-29T08:50:32.707Z,2.55
2023-03-29T08:54:14.010Z,2.20
2023-03-29T08:57:32.253Z,2.17
2023-03-29T09:00:41.810Z,2.00
2023-03-29T09:03:49.961Z,2.25
2023-03-29T09:06:54.254Z,2.62
2023-03-29T09:09:58.141Z,1.92
2023-03-29T09:13:23.303Z,2.15
2023-03-29T09:16:45.164Z,2.20
2023-03-29T09:20:13.431Z,2.25
2023-03-29T09:23:18.303Z,2.20
2023-03-29T09:26:52.849Z,2.47
2023-03-29T09:30:26.867Z,2.50
2023-03-29T09:33:47.931Z,3.12
2023-03-29T09:37:22.000Z,2.42
2023-03-29T09:40:40.220Z,2.35
2023-03-29T09:43:45.316Z,3.12
2023-03-29T09:47:06.898Z,2.72
2023-03-29T09:50:31.680Z,2.65
2023-03-29T09:53:36.327Z,2.50
2023-03-29T09:56:43.423Z,2.75
2023-03-29T09:59:49.262Z,2.65
2023-03-29T10:02:57.181Z,3.87
2023-03-29T10:06:03.721Z,2.87
2023-03-29T10:09:20.837Z,3.08
2023-03-29T10:12:24.083Z,2.70
2023-03-29T10:15:30.946Z,2.40
2023-03-29T10:18:39.783Z,2.35
2023-03-29T10:21:42.405Z,2.25
2023-03-29T10:24:51.830Z,2.20
2023-03-29T10:28:01.688Z,2.60
2023-03-29T10:31:08.400Z,2.50
2023-03-29T10:34:15.474Z,2.58
2023-03-29T10:37:21.334Z,2.25
2023-03-29T10:40:35.685Z,2.58
2023-03-29T10:43:44.448Z,3.22
2023-03-29T10:46:47.247Z,2.87
2023-03-29T10:49:56.416Z,2.35
2023-03-29T10:53:00.596Z,2.22
2023-03-29T10:56:23.165Z,2.45
2023-03-29T10:59:28.296Z,2.60
2023-03-29T11:03:09.746Z,2.87
2023-03-29T11:06:16.790Z,2.85
2023-03-29T11:09:32.440Z,2.92
2023-03-29T11:13:13.235Z,2.92
2023-03-29T11:16:27.176Z,2.75
2023-03-29T11:19:44.432Z,2.78
2023-03-29T11:22:59.824Z,3.30
2023-03-29T11:26:05.277Z,2.97
2023-03-29T11:29:25.945Z,2.83
2023-03-29T11:32:48.505Z,2.72
2023-03-29T11:36:00.942Z,3.50
2023-03-29T11:39:19.477Z,2.90
2023-03-29T11:42:25.689Z,2.40
2023-03-29T11:45:49.123Z,2.42
2023-03-29T11:49:15.334Z,2.50
2023-03-29T11:52:43.020Z,3.03
2023-03-29T11:55:47.350Z,2.47
2023-03-29T11:58:56.966Z,3.00
2023-03-29T12:02:13.307Z,2.92
2023-03-29T12:08:38.452Z,2.87
2023-03-29T12:11:50.421Z,3.12
2023-03-29T12:15:20.224Z,2.97
2023-03-29T12:18:25.508Z,2.47
2023-03-29T12:21:29.754Z,2.80
2023-03-29T12:24:34.803Z,2.90
2023-03-29T12:28:06.781Z,2.80
2023-03-29T12:31:22.276Z,3.12
2023-03-29T12:34:31.096Z,2.65
2023-03-29T12:37:57.222Z,2.90
2023-03-29T12:41:14.456Z,2.70
2023-03-29T12:44:23.927Z,2.72
2023-03-29T12:47:33.745Z,3.05
2023-03-29T12:51:01.316Z,3.03
2023-03-29T12:54:04.123Z,3.00
2023-03-29T12:57:41.237Z,3.50
2023-03-29T13:00:46.213Z,3.65
2023-03-29T13:04:10.647Z,3.90
2023-03-29T13:07:15.004Z,3.42
2023-03-29T13:10:39.635Z,3.53
2023-03-29T13:13:43.419Z,3.80
2023-03-29T13:16:46.168Z,3.80
2023-03-29T13:20:12.367Z,3.12
2023-03-29T13:23:27.072Z,3.58
2023-03-29T13:26:50.639Z,3.50
2023-03-29T13:30:05.858Z,3.62
2023-03-29T13:33:27.916Z,3.30
2023-03-29T13:36:48.577Z,3.92
2023-03-29T13:39:53.732Z,3.45
2023-03-29T13:43:08.191Z,3.30
2023-03-29T13:46:22.370Z,3.55
2023-03-29T13:49:27.687Z,3.33
2023-03-29T13:52:51.572Z,3.70
2023-03-29T13:55:54.885Z,3.72
2023-03-29T13:59:10.225Z,3.87
2023-03-29T14:02:21.926Z,3.53
2023-03-29T14:05:32.159Z,3.78
2023-03-29T14:08:39.661Z,3.72
2023-03-29T14:11:45.194Z,3.55
2023-03-29T14:14:57.655Z,4.07
2023-03-29T14:18:01.633Z,4.18
2023-03-29T14:21:04.487Z,3.72
2023-03-29T14:24:12.763Z,4.50
2023-03-29T14:27:16.194Z,4.60
2023-03-29T14:30:21.878Z,4.03
2023-03-29T14:33:30.190Z,4.03
2023-03-29T14:36:33.750Z,4.15
2023-03-29T14:39:36.518Z,3.97
2023-03-29T14:42:39.774Z,3.83
2023-03-29T14:45:42.198Z,3.97
2023-03-29T14:48:45.170Z,4.85
2023-03-29T14:51:47.905Z,4.28
2023-03-29T14:54:53.001Z,4.75
2023-03-29T14:57:55.645Z,4.05
2023-03-29T15:01:03.837Z,3.47
2023-03-29T15:04:08.461Z,3.60
2023-03-29T15:07:10.980Z,3.50
2023-03-29T15:10:19.212Z,3.28
2023-03-29T15:13:24.632Z,4.43
2023-03-29T15:16:30.078Z,3.85
2023-03-29T15:19:33.222Z,3.70
2023-03-29T15:22:35.526Z,3.58
2023-03-29T15:25:47.589Z,3.90
2023-03-29T15:28:55.789Z,3.87
2023-03-29T15:31:59.214Z,3.40
2023-03-29T15:35:05.130Z,3.72
2023-03-29T15:38:12.291Z,3.35
2023-03-29T15:41:15.409Z,3.58
